Thursday, June 21, 2018, 12:05 PM EDT
Back to Local

KGNR, Greenville

Location: Greenville, ME, United States Lat: 45.467
Local Time: 12:05 PM EDT (16:05 GMT) Lon: -69.583
Time Zone: US/Eastern Elev: 1400 ft

Show me the last for .
Show Coded

Time T Td Feel RH Dir Speed Gust Alt SLP Vis Weather Sky Remarks
2018-06-21 10:56 59 42 - 53 350° 9 - 29.81 29.81 0 None
2018-06-21 09:56 58 44 - 59 330° 12 - 29.81 29.81 0 None
2018-06-21 08:56 57 43 - 59 330° 12 - 29.79 29.79 0 None
2018-06-21 07:56 55 43 - 63 320° 8 17 29.79 29.79 0 6-hr Min Temp (8am): 50.0°F
6-hr Max Temp (8am): 61.0°F
2018-06-21 06:56 54 44 - 69 330° 8 - 29.78 29.77 0 None
2018-06-21 05:56 52 42 - 68 330° 7 - 29.75 29.75 0 None
2018-06-21 04:56 52 42 - 68 340° 6 - 29.74 29.73 0 None
2018-06-21 03:56 55 44 - 66 10° 12 - 29.71 29.70 0 None
2018-06-21 02:56 59 55 - 86 330° 14 21 29.71 29.70 0 None
2018-06-21 01:56 61 54 - 77 320° 12 - 29.70 29.69 0 6-hr Min Temp (2am): 61.0°F
6-hr Max Temp (2am): 71.1°F
2018-06-21 00:56 63 53 - 70 300° 7 18 29.70 29.68 0 24-hr Min Temp (1am): 48.9°F
24-hr Max Temp (1am): 78.1°F
2018-06-20 23:56 64 51 - 62 Variable 7 - 29.69 29.67 0 None
2018-06-20 22:56 65 51 - 60 290° 8 - 29.70 29.69 0 None
2018-06-20 21:56 63 54 - 72 Variable 5 - 29.70 29.69 0 None
2018-06-20 20:56 62 56 - 80 330° 8 - 29.71 29.70 0 None
2018-06-20 19:56 71 50 76 47 290° 8 - 29.68 29.66 0 6-hr Min Temp (8pm): 71.1°F
6-hr Max Temp (8pm): 78.1°F
2018-06-20 18:56 73 51 76 46 Variable 6 - 29.67 29.66 0 None
2018-06-20 17:56 76 50 77 40 Variable 6 - 29.66 29.65 0 None
2018-06-20 16:56 77 51 78 40 - - - 29.67 29.66 0 None
2018-06-20 15:56 76 49 - 38 260° 8 - 29.69 29.68 0 None
2018-06-20 14:56 77 49 - 37 Variable 7 - 29.70 29.69 0 None
2018-06-20 13:56 76 48 - 37 290° 8 - 29.70 29.69 0 6-hr Min Temp (2pm): 63.0°F
6-hr Max Temp (2pm): 75.9°F
2018-06-20 12:56 75 48 - 38 Variable 5 - 29.73 29.72 0 None

Support USWX by starting your Amazon purchase here.